Weather

Rainfall Maps have ended for the season and will begin again on June 1st.

*Note: Some stations are located near irrigated fields and may also report irrigation

Forrest Carberry Carberry North Wawanesa Glenboro Glenora Treherne Gladstone Portage East High Bluff Elm Creek Carman Winkler Kuhl Farm Morris St.Adolphe Steinbach Selkirk Macdonald Shilo Rivers Somerset Reinland Altona Starbuck St.Pierre Winkler




Forrest - Historical Weather Data
Date Max Temp (°C) Min Temp (°C) Avg Temp (°C) Rain (mm) Avg RH (%) Solar Radiation (W/m2)
4/25/2018 18.1 2.9 9.7 0.0 51.0 19.8
4/24/2018 14.6 -3.5 5.9 0.0 58.0 25.0
4/23/2018 11.7 0.0 5.7 0.0 68.0 20.8
4/22/2018 16.2 4.0 9.0 0.0 63.0 18.9
4/21/2018 16.0 -1.0 7.8 0.0 73.0 23.4
4/20/2018 13.7 -0.6 5.8 0.0 63.0 22.4
4/19/2018 8.3 0.0 5.2 0.0 62.0 3.8
4/18/2018 7.9 -3.2 2.5 0.0 55.0 19.7
4/17/2018 4.0 -4.4 -0.2 0.0 60.0 18.3
4/16/2018 2.1 -9.6 -3.1 0.0 64.0 24.6
4/15/2018 2.9 -10.7 -4.1 0.0 63.0 24.7
4/14/2018 -0.4 -12.2 -6.7 0.0 62.0 22.8
4/13/2018 -4.3 -14.6 -9.2 0.0 61.0 24.0
4/12/2018 -2.8 -10.3 -5.1 0.0 77.0 17.5
4/11/2018 1.0 -9.3 -3.8 4.1 79.0 15.8
4/10/2018 1.7 -4.7 -2.1 0.0 80.0 20.9
4/9/2018 -1.6 -17.1 -8.3 0.0 70.0 21.1
4/8/2018 -5.6 -16.6 -10.6 0.0 64.0 20.9
4/7/2018 -5.0 -20.2 -11.9 0.0 64.0 23.0
4/6/2018 -9.1 -21.3 -15.2 0.0 69.0 22.3
4/5/2018 -6.7 -17.3 -11.3 0.0 70.0 21.2
4/4/2018 -5.2 -16.6 -10.3 0.0 72.0 22.1
4/3/2018 -4.6 -22.7 -13.2 0.0 71.0 21.9
4/2/2018 -13.6 -21.5 -16.9 0.0 67.0 21.3
4/1/2018 -6.1 -16.1 -11.8 0.0 69.0 21.3
3/31/2018 -9.8 -21.9 -16.0 0.0 66.0 21.3
3/30/2018 -12.3 -25.1 -18.0 0.0 64.0 18.8
3/29/2018 -8.6 -20.2 -13.5 0.0 77.0 17.4
3/28/2018 1.3 -13.9 -7.9 1.5 80.0 20.0
3/27/2018 3.6 -8.2 -1.8 2.3 87.0 18.8
3/26/2018 2.1 -5.0 -1.9 0.0 96.0 11.9
3/25/2018 3.7 -2.1 0.5 0.9 89.0 16.1
3/24/2018 -0.8 -3.1 -1.9 0.6 100.0 6.0
3/23/2018 0.6 -6.2 -3.0 0.7 89.0 12.6
3/22/2018 -0.5 -10.6 -4.3 0.0 98.0 16.7
3/21/2018 0.3 -4.9 -2.6 0.0 95.0 12.4
3/20/2018 -3.6 -9.9 -6.6 0.8 83.0 11.8
3/19/2018 -4.1 -9.2 -6.0 0.0 64.0 12.5
3/18/2018 0.9 -4.3 -1.7 0.0 83.0 12.8
3/17/2018 -0.9 -12.9 -6.5 0.0 71.0 15.3
3/16/2018 3.5 -14.8 -7.2 0.0 57.0 16.9
3/15/2018 -7.0 -14.2 -10.4 0.0 73.0 17.3
3/14/2018 -0.9 -9.9 -4.8 0.0 75.0 17.3
3/13/2018 -0.8 -15.3 -7.9 0.0 83.0 15.5
3/12/2018 -0.1 -14.8 -7.3 0.0 72.0 16.6
3/11/2018 -3.5 -14.4 -8.2 0.0 84.0 16.2
3/10/2018 -3.6 -9.1 -6.3 0.3 95.0 9.6
3/9/2018 -7.9 -16.8 -11.6 0.1 95.0 9.3
3/8/2018 -7.0 -18.2 -11.3 0.0 93.0 13.8
3/7/2018 -5.6 -15.6 -9.1 0.0 95.0 14.0
3/6/2018 -3.1 -14.8 -7.8 0.0 96.0 13.3
3/5/2018 -1.1 -3.2 -2.4 4.6 100.0 6.4
3/4/2018 -0.7 -3.2 -1.8 4.8 96.0 5.7
3/3/2018 -1.6 -9.6 -5.4 0.0 84.0 11.5
3/2/2018 -5.1 -10.9 -8.2 0.0 81.0 12.4
3/1/2018 -2.0 -15.3 -9.3 0.0 87.0 14.1
2/28/2018 -1.8 -15.4 -8.6 0.0 86.0 12.5
2/27/2018 -1.8 -18.6 -9.9 0.0 84.0 13.6
2/26/2018 -3.3 -15.8 -9.4 0.0 85.0 11.6
2/25/2018 -4.6 -17.2 -9.8 0.0 90.0 10.6
2/24/2018 -6.7 -16.5 -12.3 0.7 82.0 10.4
2/23/2018 -9.6 -20.4 -15.5 0.0 83.0 12.6
2/22/2018 -9.8 -22.4 -17.1 0.0 76.0 12.5
2/21/2018 -15.8 -22.8 -19.2 0.0 74.0 11.6
2/20/2018 -12.5 -20.4 -16.3 0.0 74.0 9.9
2/19/2018 -15.8 -29.4 -21.4 0.0 73.0 10.2
2/18/2018 -12.2 -25.9 -17.5 0.0 73.0 10.2
2/17/2018 -11.8 -21.4 -15.9 0.0 77.0 11.0
2/16/2018 -11.6 -21.7 -16.6 0.0 79.0 8.6
2/15/2018 -15.3 -24.2 -20.8 0.0 69.0 10.7
2/14/2018 -1.0 -15.3 -6.0 0.5 88.0 4.5
2/13/2018 -6.6 -22.1 -13.7 0.0 76.0 7.8
2/12/2018 -19.8 -31.1 -25.6 0.0 70.0 10.6
2/11/2018 -15.1 -27.8 -20.1 0.0 74.0 10.3
2/10/2018 -14.1 -21.8 -18.1 0.0 76.0 7.2
2/9/2018 -15.5 -28.0 -21.4 0.0 75.0 9.9
2/8/2018 -18.0 -28.5 -23.5 0.0 75.0 9.0
2/7/2018 -18.3 -27.2 -22.7 0.0 79.0 9.5
2/6/2018 -16.6 -26.4 -22.0 0.0 77.0 7.9
2/5/2018 -17.7 -26.1 -21.3 0.0 72.0 8.6
2/4/2018 -17.5 -28.8 -23.3 0.0 70.0 8.4
2/3/2018 -21.3 -27.0 -23.7 0.4 74.0 7.2
2/2/2018 -15.9 -23.3 -19.9 0.4 77.0 5.4
2/1/2018 -21.6 -28.0 -24.2 0.0 74.0 8.6
1/31/2018 -14.6 -23.4 -18.7 0.0 70.0 6.7
1/30/2018 1.2 -21.8 -12.0 0.2 85.0 5.0
1/29/2018 -18.2 -23.6 -20.8 0.0 80.0 7.4
1/28/2018 -18.9 -29.3 -23.3 0.0 79.0 7.1
1/27/2018 -12.1 -24.4 -16.8 0.4 80.0 6.3
1/26/2018 -4.3 -12.3 -7.0 1.4 94.0 3.8
1/25/2018 -4.3 -12.9 -8.8 0.0 98.0 2.4
1/24/2018 -5.6 -13.7 -10.9 0.0 95.0 2.5
1/23/2018 -4.9 -8.5 -6.6 0.0 96.0 3.1
1/22/2018 -5.5 -7.5 -6.6 0.0 100.0 1.9
1/21/2018 -5.5 -8.9 -7.5 0.0 100.0 2.7
1/20/2018 -1.5 -10.7 -6.0 0.0 94.0 6.4
1/19/2018 2.7 -4.1 0.3 0.0 85.0 4.8
1/18/2018 1.9 -5.2 -2.3 0.0 87.0 4.1
1/17/2018 3.7 -14.5 -5.2 0.0 74.0 6.4
1/16/2018 -13.7 -27.6 -18.9 0.0 69.0 6.1
1/15/2018 -22.2 -27.9 -25.5 0.0 70.0 6.5
1/14/2018 -14.6 -24.8 -18.3 0.2 74.0 5.5
1/13/2018 -18.8 -31.6 -25.1 0.0 75.0 6.2
1/12/2018 -22.5 -31.9 -26.4 0.0 73.0 6.2
1/11/2018 -21.2 -31.4 -25.9 0.0 70.0 6.0
1/10/2018 -0.7 -21.4 -12.4 0.0 80.0 2.5
1/9/2018 -2.7 -14.1 -8.1 0.0 99.0 2.9
1/8/2018 -4.3 -13.8 -8.2 0.0 83.0 4.8
1/7/2018 -1.0 -5.4 -2.8 0.0 84.0 4.3
1/6/2018 -5.2 -15.4 -11.3 0.0 89.0 4.0
1/5/2018 -15.1 -21.3 -18.5 0.0 76.0 2.5
1/4/2018 -19.3 -22.8 -20.8 0.0 81.0 3.5
1/3/2018 -19.1 -27.0 -21.6 0.4 78.0 3.5
1/2/2018 -12.8 -25.2 -19.3 0.0 74.0 3.1
1/1/2018 -21.4 -29.2 -24.8 0.0 72.0 5.5
12/31/2017 -22.9 -32.1 -27.3 0.0 73.0 5.3
12/30/2017 -30.0 -36.6 -33.0 0.0 70.0 5.1
12/29/2017 -26.5 -33.6 -29.1 0.0 73.0 5.3
12/28/2017 -21.9 -28.0 -24.2 0.3 75.0 5.1
12/27/2017 -22.7 -33.0 -27.6 0.0 73.0 4.7
12/26/2017 -27.0 -30.4 -29.0 0.0 71.0 5.1
12/25/2017 -26.8 -30.2 -28.4 0.0 69.0 5.0
12/24/2017 -22.1 -29.0 -25.6 0.0 75.0 4.5
12/23/2017 -8.8 -22.8 -15.3 0.0 82.0 2.8
12/22/2017 -10.6 -21.8 -13.6 0.0 78.0 2.9
12/21/2017 -12.8 -26.5 -18.9 0.0 83.0 4.6
12/20/2017 -17.0 -22.5 -19.5 0.0 83.0 2.9
12/19/2017 -4.2 -20.8 -12.7 0.0 74.0 3.5
12/18/2017 -0.4 -6.0 -3.1 0.0 84.0 3.0
12/17/2017 -1.8 -11.3 -6.6 0.0 86.0 4.9
12/16/2017 -1.7 -12.0 -8.2 0.3 97.0 3.9
12/15/2017 -6.9 -12.2 -9.2 3.0 99.0 2.0
12/14/2017 -3.1 -9.3 -6.1 0.0 92.0 2.4
12/13/2017 1.3 -10.8 -3.9 0.2 88.0 2.8
12/12/2017 2.6 -5.8 -1.4 0.0 87.0 3.9
12/11/2017 1.5 -10.4 -6.2 0.0 84.0 4.3
12/10/2017 0.6 -8.2 -4.6 0.8 90.0 2.7
12/9/2017 -0.9 -15.0 -6.6 0.0 86.0 4.3
12/8/2017 -1.2 -11.9 -6.1 0.0 87.0 3.6
12/7/2017 -4.3 -17.9 -8.9 0.0 95.0 2.8
12/6/2017 -12.9 -18.3 -15.3 0.0 75.0 5.4
12/5/2017 -12.0 -19.3 -15.8 0.0 78.0 5.6
12/4/2017 -2.8 -16.0 -7.6 1.4 88.0 2.6
12/3/2017 -2.5 -8.7 -4.9 0.0 92.0 2.8
12/2/2017 0.5 -10.6 -5.1 0.0 95.0 5.0
12/1/2017 1.5 -8.9 -4.3 0.0 84.0 3.5
11/30/2017 1.6 -7.9 -2.9 0.0 88.0 5.6
11/29/2017 1.9 -6.3 -1.4 0.0 80.0 1.8
11/28/2017 1.3 -9.7 -5.7 0.0 73.0 5.4
11/27/2017 5.0 -8.6 -1.6 0.0 89.0 3.6
11/26/2017 -0.4 -9.2 -6.8 0.0 95.0 2.5
11/25/2017 -0.3 -14.3 -7.4 0.0 98.0 3.1
11/24/2017 3.2 -11.2 0.0 0.7 85.0 5.7
11/23/2017 6.5 -8.7 -3.5 0.0 92.0 4.0
11/22/2017 -6.3 -21.1 -12.2 0.3 85.0 2.9
11/21/2017 -10.4 -18.7 -13.2 0.0 81.0 6.3
11/20/2017 2.8 -12.1 -5.9 0.0 84.0 3.7
11/19/2017 -6.6 -12.7 -10.3 0.0 82.0 6.2
11/18/2017 -10.3 -17.4 -13.8 0.0 78.0 7.0
11/17/2017 -1.6 -14.9 -10.6 0.0 80.0 7.0
11/16/2017 -3.5 -11.9 -7.7 0.0 98.0 2.7
11/15/2017 -5.8 -12.2 -10.4 0.0 85.0 4.3
11/14/2017 1.9 -10.7 -3.6 0.0 91.0 5.7
11/13/2017 0.8 -11.4 -7.0 0.0 90.0 7.5
11/12/2017 -4.5 -13.2 -8.3 0.0 86.0 7.4
11/11/2017 -4.6 -8.6 -5.9 0.2 91.0 3.3
11/10/2017 -7.3 -20.1 -11.7 3.9 88.0 3.5
11/9/2017 -8.9 -24.9 -17.3 0.0 80.0 8.0
11/8/2017 -10.2 -20.2 -13.4 1.5 81.0 5.3
11/7/2017 -6.8 -21.6 -13.8 0.0 83.0 8.0
11/6/2017 -7.8 -19.9 -13.8 0.0 83.0 7.9
11/5/2017 -6.4 -15.4 -10.2 0.0 83.0 8.0
11/4/2017 -3.3 -6.7 -5.2 5.6 97.0 3.4
11/3/2017 -4.2 -11.5 -7.1 0.0 86.0 3.5
11/2/2017 -2.2 -11.5 -5.6 0.0 81.0 6.0
11/1/2017 -2.4 -7.9 -4.8 0.4 97.0 3.6
10/31/2017 -2.1 -12.6 -6.5 0.0 83.0 5.0